createdAt,value
2019-06-15T00:00:18.375Z,0.00
2019-06-15T00:01:18.362Z,0.00
2019-06-15T00:02:18.347Z,0.00
2019-06-15T00:03:18.334Z,0.00
2019-06-15T00:04:18.298Z,0.00
2019-06-15T00:05:18.289Z,0.00
2019-06-15T00:06:18.268Z,0.00
2019-06-15T00:07:18.254Z,0.00
2019-06-15T00:08:18.255Z,0.00
2019-06-15T00:09:18.224Z,0.00
2019-06-15T00:10:18.212Z,0.00
2019-06-15T00:11:18.195Z,0.00
2019-06-15T00:12:18.184Z,0.00
2019-06-15T00:13:18.165Z,0.00
2019-06-15T00:14:18.151Z,0.00
2019-06-15T00:15:18.152Z,0.00
2019-06-15T00:16:18.130Z,0.00
2019-06-15T00:17:18.136Z,0.00
2019-06-15T00:18:18.100Z,0.00
2019-06-15T00:19:18.079Z,0.00
2019-06-15T00:20:18.067Z,0.00
2019-06-15T00:21:18.048Z,0.00
2019-06-15T00:22:18.035Z,0.00
2019-06-15T00:23:18.020Z,0.00
2019-06-15T00:24:18.010Z,0.00
2019-06-15T00:25:18.010Z,0.00
2019-06-15T00:26:17.975Z,0.00
2019-06-15T00:27:17.959Z,0.00
2019-06-15T00:28:17.964Z,0.00
2019-06-15T00:29:17.931Z,0.00
2019-06-15T00:30:17.915Z,0.00
2019-06-15T00:31:17.905Z,0.00
2019-06-15T00:32:17.886Z,0.00
2019-06-15T00:33:17.870Z,0.00
2019-06-15T00:34:17.858Z,0.00
2019-06-15T00:35:17.844Z,0.00
2019-06-15T00:36:17.825Z,0.00
2019-06-15T00:37:17.810Z,0.00
2019-06-15T00:38:17.806Z,0.00
2019-06-15T00:39:17.780Z,0.00
2019-06-15T00:40:17.775Z,0.00
2019-06-15T00:41:17.750Z,0.00
2019-06-15T00:42:17.735Z,0.00
2019-06-15T00:43:17.720Z,0.00
2019-06-15T00:44:17.706Z,0.00
2019-06-15T00:45:17.689Z,0.00
2019-06-15T00:46:17.701Z,0.00
2019-06-15T00:47:17.667Z,0.00
2019-06-15T00:48:17.653Z,0.00
2019-06-15T00:49:17.729Z,0.00
2019-06-15T00:50:17.618Z,0.00
2019-06-15T00:51:17.606Z,0.00
2019-06-15T00:52:17.631Z,0.00
2019-06-15T00:53:17.570Z,0.00
2019-06-15T00:54:17.557Z,0.00
2019-06-15T00:55:17.543Z,0.00
2019-06-15T00:56:17.525Z,0.00
2019-06-15T00:57:17.514Z,0.00
2019-06-15T00:58:17.576Z,0.00
2019-06-15T00:59:17.482Z,0.00
2019-06-15T01:00:17.469Z,0.00
2019-06-15T01:01:17.482Z,0.00
2019-06-15T01:02:17.458Z,0.00
2019-06-15T01:03:17.421Z,0.00
2019-06-15T01:04:17.407Z,0.00
2019-06-15T01:05:17.391Z,0.00
2019-06-15T01:06:17.378Z,0.00
2019-06-15T01:07:17.362Z,0.00
2019-06-15T01:08:17.349Z,0.00
2019-06-15T01:09:17.333Z,0.00
2019-06-15T01:10:17.322Z,0.00
2019-06-15T01:11:17.305Z,0.00
2019-06-15T01:12:17.300Z,0.00
2019-06-15T01:13:17.273Z,0.00
2019-06-15T01:14:17.353Z,0.00
2019-06-15T01:15:17.243Z,0.00
2019-06-15T01:16:17.231Z,0.00
2019-06-15T01:17:17.297Z,0.00
2019-06-15T01:18:17.199Z,0.00
2019-06-15T01:19:17.185Z,0.00
2019-06-15T01:20:17.169Z,0.00
2019-06-15T01:21:17.154Z,0.00
2019-06-15T01:22:17.143Z,0.00
2019-06-15T01:23:17.125Z,0.00
2019-06-15T01:24:17.110Z,0.00
2019-06-15T01:25:17.106Z,0.00
2019-06-15T01:26:17.081Z,0.00
2019-06-15T01:27:17.066Z,0.00
2019-06-15T01:28:17.054Z,0.00
2019-06-15T01:29:17.035Z,0.00
2019-06-15T01:30:17.025Z,0.00
2019-06-15T01:31:17.009Z,0.00
2019-06-15T01:32:16.990Z,0.00
2019-06-15T01:33:16.989Z,0.00
2019-06-15T01:34:16.962Z,0.00
2019-06-15T01:35:16.950Z,0.00
2019-06-15T01:36:16.931Z,0.00
2019-06-15T01:37:16.926Z,0.00
2019-06-15T01:38:16.901Z,0.00
2019-06-15T01:39:16.892Z,0.00
2019-06-15T01:40:16.878Z,0.00
2019-06-15T01:41:16.870Z,0.00
2019-06-15T01:42:16.847Z,0.00
2019-06-15T01:43:16.828Z,0.00
2019-06-15T01:44:16.842Z,0.00
2019-06-15T01:45:16.797Z,0.00
2019-06-15T01:46:16.783Z,0.00
2019-06-15T01:47:16.771Z,0.00
2019-06-15T01:48:16.753Z,0.00
2019-06-15T01:49:16.741Z,0.00
2019-06-15T01:50:16.724Z,0.00
2019-06-15T01:51:16.718Z,0.00
2019-06-15T01:52:16.693Z,0.00
2019-06-15T01:53:16.678Z,0.00
2019-06-15T01:54:16.669Z,0.00
2019-06-15T01:55:20.894Z,0.00
2019-06-15T01:56:16.634Z,0.00
2019-06-15T01:57:16.631Z,0.00
2019-06-15T01:58:16.612Z,0.00
2019-06-15T01:59:16.612Z,0.00
2019-06-15T02:00:16.576Z,0.00
2019-06-15T02:01:16.560Z,0.00
2019-06-15T02:02:16.553Z,0.00
2019-06-15T02:03:16.536Z,0.00
2019-06-15T02:04:16.518Z,0.00
2019-06-15T02:05:16.503Z,0.00
2019-06-15T02:06:16.487Z,0.00
2019-06-15T02:07:16.476Z,0.00
2019-06-15T02:08:16.456Z,0.00
2019-06-15T02:09:16.448Z,0.00
2019-06-15T02:10:16.427Z,0.00
2019-06-15T02:11:16.413Z,0.00
2019-06-15T02:12:16.405Z,0.00
2019-06-15T02:13:16.383Z,0.00
2019-06-15T02:14:16.418Z,0.00
2019-06-15T02:15:16.353Z,0.00
2019-06-15T02:16:16.338Z,0.00
2019-06-15T02:17:16.333Z,0.00
2019-06-15T02:18:16.308Z,0.00
2019-06-15T02:19:16.300Z,0.00
2019-06-15T02:20:16.281Z,0.00
2019-06-15T02:21:16.265Z,0.00
2019-06-15T02:22:16.254Z,0.00
2019-06-15T02:23:16.237Z,0.00
2019-06-15T02:24:16.219Z,0.00
2019-06-15T02:25:16.206Z,0.00
2019-06-15T02:26:16.188Z,0.00
2019-06-15T02:27:16.174Z,0.00
2019-06-15T02:28:16.161Z,0.00
2019-06-15T02:29:16.145Z,0.00
2019-06-15T02:30:16.137Z,0.00
2019-06-15T02:31:16.119Z,0.00
2019-06-15T02:32:16.105Z,0.00
2019-06-15T02:33:16.102Z,0.00
2019-06-15T02:34:16.105Z,0.00
2019-06-15T02:35:16.058Z,0.00
2019-06-15T02:36:16.048Z,0.00
2019-06-15T02:37:16.022Z,0.00
2019-06-15T02:38:16.011Z,0.00
2019-06-15T02:39:16.007Z,0.00
2019-06-15T02:40:15.978Z,0.00
2019-06-15T02:41:15.974Z,0.00
2019-06-15T02:42:15.948Z,0.00
2019-06-15T02:43:15.936Z,0.00
2019-06-15T02:44:15.919Z,4.00
2019-06-15T02:45:15.904Z,4.00
2019-06-15T02:46:15.887Z,4.00
2019-06-15T02:47:15.873Z,4.00
2019-06-15T02:48:15.862Z,0.00
2019-06-15T02:49:15.842Z,0.00
2019-06-15T02:50:15.826Z,0.00
2019-06-15T02:51:15.812Z,4.00
2019-06-15T02:52:15.795Z,4.00
2019-06-15T02:53:15.780Z,8.00
2019-06-15T02:54:15.772Z,8.00
2019-06-15T02:55:15.752Z,8.00
2019-06-15T02:56:15.737Z,12.00
2019-06-15T02:57:15.721Z,8.00
2019-06-15T02:58:15.705Z,12.00
2019-06-15T02:59:15.690Z,12.00
2019-06-15T03:00:15.678Z,12.00
2019-06-15T03:01:15.660Z,8.00
2019-06-15T03:02:15.645Z,12.00
2019-06-15T03:03:15.632Z,12.00
2019-06-15T03:04:15.615Z,8.00
2019-06-15T03:05:15.599Z,12.00
2019-06-15T03:06:15.588Z,12.00
2019-06-15T03:07:15.580Z,8.00
2019-06-15T03:08:15.554Z,8.00
2019-06-15T03:09:15.541Z,8.00
2019-06-15T03:10:15.523Z,8.00
2019-06-15T03:11:15.508Z,8.00
2019-06-15T03:12:15.516Z,8.00
2019-06-15T03:13:15.477Z,8.00
2019-06-15T03:14:15.463Z,8.00
2019-06-15T03:15:15.453Z,8.00
2019-06-15T03:16:15.435Z,8.00
2019-06-15T03:17:15.417Z,8.00
2019-06-15T03:18:15.403Z,12.00
2019-06-15T03:19:15.387Z,16.00
2019-06-15T03:20:15.386Z,24.00
2019-06-15T03:21:15.356Z,28.00
2019-06-15T03:22:15.344Z,36.00
2019-06-15T03:23:15.337Z,36.00
2019-06-15T03:24:15.314Z,40.00
2019-06-15T03:25:15.298Z,40.00
2019-06-15T03:26:15.286Z,44.00
2019-06-15T03:27:15.281Z,48.00
2019-06-15T03:28:15.248Z,52.00
2019-06-15T03:29:15.237Z,52.00
2019-06-15T03:30:15.220Z,52.00
2019-06-15T03:31:15.233Z,56.00
2019-06-15T03:32:15.189Z,56.00
2019-06-15T03:33:15.205Z,56.00
2019-06-15T03:34:15.162Z,60.00
2019-06-15T03:35:15.143Z,60.00
2019-06-15T03:36:15.125Z,68.00
2019-06-15T03:37:15.111Z,76.00
2019-06-15T03:38:15.106Z,84.00
2019-06-15T03:39:15.101Z,88.00
2019-06-15T03:40:15.064Z,96.00
2019-06-15T03:41:15.056Z,104.00
2019-06-15T03:42:15.034Z,116.00
2019-06-15T03:43:15.025Z,128.00
2019-06-15T03:44:15.006Z,140.00
2019-06-15T03:45:14.989Z,152.00
2019-06-15T03:46:14.974Z,160.00
2019-06-15T03:47:14.971Z,156.00
2019-06-15T03:48:14.950Z,172.00
2019-06-15T03:49:14.928Z,196.00
2019-06-15T03:50:14.911Z,204.00
2019-06-15T03:51:14.895Z,192.00
2019-06-15T03:52:14.879Z,180.00
2019-06-15T03:53:14.865Z,180.00
2019-06-15T03:54:14.849Z,188.00
2019-06-15T03:55:14.835Z,200.00
2019-06-15T03:56:21.475Z,216.00
2019-06-15T03:57:14.818Z,216.00
2019-06-15T03:58:14.788Z,216.00
2019-06-15T03:59:14.774Z,220.00
2019-06-15T04:00:14.767Z,232.00
2019-06-15T04:01:14.752Z,244.00
2019-06-15T04:02:14.725Z,248.00
2019-06-15T04:03:14.711Z,268.00
2019-06-15T04:04:14.694Z,284.00
2019-06-15T04:05:14.679Z,296.00
2019-06-15T04:06:14.668Z,316.00
2019-06-15T04:07:14.650Z,336.00
2019-06-15T04:08:14.632Z,348.00
2019-06-15T04:09:14.617Z,372.00
2019-06-15T04:10:14.605Z,400.00
2019-06-15T04:11:14.601Z,436.00
2019-06-15T04:12:14.577Z,476.00
2019-06-15T04:13:14.554Z,520.00
2019-06-15T04:14:14.545Z,552.00
2019-06-15T04:15:14.536Z,588.00
2019-06-15T04:16:14.517Z,628.00
2019-06-15T04:17:14.494Z,680.00
2019-06-15T04:18:14.479Z,700.00
2019-06-15T04:19:14.478Z,708.00
2019-06-15T04:20:14.451Z,696.00
2019-06-15T04:21:14.440Z,680.00
2019-06-15T04:22:14.419Z,688.00
2019-06-15T04:23:14.401Z,700.00
2019-06-15T04:24:14.385Z,700.00
2019-06-15T04:25:14.378Z,700.00
2019-06-15T04:26:14.357Z,704.00
2019-06-15T04:27:14.342Z,696.00
2019-06-15T04:28:14.323Z,700.00
2019-06-15T04:29:14.308Z,696.00
2019-06-15T04:30:14.293Z,688.00
2019-06-15T04:31:14.280Z,680.00
2019-06-15T04:32:14.262Z,680.00
2019-06-15T04:33:14.246Z,692.00
2019-06-15T04:34:14.232Z,712.00
2019-06-15T04:35:14.217Z,756.00
2019-06-15T04:36:14.200Z,796.00
2019-06-15T04:37:14.196Z,848.00
2019-06-15T04:38:14.170Z,888.00
2019-06-15T04:39:14.156Z,912.00
2019-06-15T04:40:14.138Z,932.00
2019-06-15T04:41:14.125Z,964.00
2019-06-15T04:42:14.107Z,1036.00
2019-06-15T04:43:14.107Z,1172.00
2019-06-15T04:44:14.079Z,1360.00
2019-06-15T04:45:14.060Z,1624.00
2019-06-15T04:46:14.047Z,1904.00
2019-06-15T04:47:14.030Z,2176.00
2019-06-15T04:48:14.016Z,2396.00
2019-06-15T04:49:14.006Z,2580.00
2019-06-15T04:50:13.983Z,2740.00
2019-06-15T04:51:13.971Z,2916.00
2019-06-15T04:52:13.963Z,3132.00
2019-06-15T04:53:14.902Z,3384.00
2019-06-15T04:54:13.923Z,3744.00
2019-06-15T04:55:13.906Z,4192.00
2019-06-15T04:56:13.889Z,4780.00
2019-06-15T04:57:13.875Z,5420.00
2019-06-15T04:58:13.861Z,6196.00
2019-06-15T04:59:13.845Z,6940.00
2019-06-15T05:00:13.829Z,7632.00
2019-06-15T05:01:13.813Z,8112.00
2019-06-15T05:02:13.813Z,8392.00
2019-06-15T05:03:13.783Z,8364.00
2019-06-15T05:04:13.768Z,8208.00
2019-06-15T05:05:13.752Z,8020.00
2019-06-15T05:06:13.744Z,7852.00
2019-06-15T05:07:13.722Z,7760.00
2019-06-15T05:08:13.708Z,7712.00
2019-06-15T05:09:13.691Z,7712.00
2019-06-15T05:10:13.678Z,7784.00
2019-06-15T05:11:13.664Z,7892.00
2019-06-15T05:12:13.646Z,8016.00
2019-06-15T05:13:13.632Z,8136.00
2019-06-15T05:14:13.616Z,8200.00
2019-06-15T05:15:13.607Z,8008.00
2019-06-15T05:16:13.585Z,7952.00
2019-06-15T05:17:13.578Z,7976.00
2019-06-15T05:18:13.556Z,8116.00
2019-06-15T05:19:13.541Z,8252.00
2019-06-15T05:20:13.534Z,8136.00
2019-06-15T05:21:13.510Z,7680.00
2019-06-15T05:22:13.497Z,7060.00
2019-06-15T05:23:13.480Z,6508.00
2019-06-15T05:24:13.471Z,6224.00
2019-06-15T05:25:13.450Z,6216.00
2019-06-15T05:26:13.435Z,6364.00
2019-06-15T05:27:13.422Z,6460.00
2019-06-15T05:28:13.404Z,6424.00
2019-06-15T05:29:13.390Z,6332.00
2019-06-15T05:30:13.376Z,6356.00
2019-06-15T05:31:13.362Z,6528.00
2019-06-15T05:32:13.344Z,6844.00
2019-06-15T05:33:13.345Z,7352.00
2019-06-15T05:34:13.321Z,8124.00
2019-06-15T05:35:13.300Z,8980.00
2019-06-15T05:36:13.284Z,9848.00
2019-06-15T05:37:13.279Z,10536.00
2019-06-15T05:38:13.256Z,11032.00
2019-06-15T05:39:13.243Z,11512.00
2019-06-15T05:40:13.231Z,11644.00
2019-06-15T05:41:15.700Z,11716.00
2019-06-15T05:42:13.196Z,12004.00
2019-06-15T05:43:13.183Z,12848.00
2019-06-15T05:44:13.166Z,13696.00
2019-06-15T05:45:13.151Z,14796.00
2019-06-15T05:46:13.146Z,15956.00
2019-06-15T05:47:13.139Z,17028.00
2019-06-15T05:48:13.108Z,17796.00
2019-06-15T05:49:13.093Z,18416.00
2019-06-15T05:50:13.078Z,18880.00
2019-06-15T05:51:13.065Z,18848.00
2019-06-15T05:52:13.050Z,18520.00
2019-06-15T05:53:13.036Z,18272.00
2019-06-15T05:54:13.031Z,17980.00
2019-06-15T05:55:13.019Z,17156.00
2019-06-15T05:56:12.993Z,16196.00
2019-06-15T05:57:21.122Z,14888.00
2019-06-15T05:58:12.983Z,13028.00
2019-06-15T05:59:12.952Z,10940.00
2019-06-15T06:00:12.938Z,10304.00
2019-06-15T06:01:12.924Z,11072.00
2019-06-15T06:02:12.910Z,12488.00
2019-06-15T06:03:12.897Z,14004.00
2019-06-15T06:04:12.884Z,15168.00
2019-06-15T06:05:12.869Z,15540.00
2019-06-15T06:06:12.861Z,15176.00
2019-06-15T06:07:12.842Z,14312.00
2019-06-15T06:08:12.833Z,13660.00
2019-06-15T06:09:12.814Z,13220.00
2019-06-15T06:10:12.800Z,13888.00
2019-06-15T06:11:12.790Z,15472.00
2019-06-15T06:12:12.776Z,18624.00
2019-06-15T06:13:12.786Z,22592.00
2019-06-15T06:14:12.747Z,23072.00
2019-06-15T06:15:12.736Z,24896.00
2019-06-15T06:16:12.722Z,27456.00
2019-06-15T06:17:12.708Z,28160.00
2019-06-15T06:18:12.697Z,28768.00
2019-06-15T06:19:12.690Z,24480.00
2019-06-15T06:20:12.673Z,25248.00
2019-06-15T06:21:12.663Z,27712.00
2019-06-15T06:22:12.654Z,26624.00
2019-06-15T06:23:12.648Z,30144.00
2019-06-15T06:24:12.646Z,24256.00
2019-06-15T06:25:12.622Z,23136.00
2019-06-15T06:26:12.627Z,21920.00
2019-06-15T06:27:12.599Z,21024.00
2019-06-15T06:28:12.588Z,19840.00
2019-06-15T06:29:12.577Z,19168.00
2019-06-15T06:30:12.567Z,19648.00
2019-06-15T06:31:12.565Z,28320.00
2019-06-15T06:32:12.559Z,26912.00
2019-06-15T06:33:12.538Z,32032.00
2019-06-15T06:34:12.530Z,41088.00
2019-06-15T06:35:12.523Z,33824.00
2019-06-15T06:36:12.511Z,35168.00
2019-06-15T06:37:12.503Z,29728.00
2019-06-15T06:38:12.496Z,27840.00
2019-06-15T06:39:12.489Z,17064.00
2019-06-15T06:40:12.481Z,22368.00
2019-06-15T06:41:13.586Z,30240.00
2019-06-15T06:42:12.466Z,21024.00
2019-06-15T06:43:12.458Z,27328.00
2019-06-15T06:44:12.453Z,24896.00
2019-06-15T06:45:12.442Z,20704.00
2019-06-15T06:46:12.439Z,20224.00
2019-06-15T06:47:12.432Z,22368.00
2019-06-15T06:48:12.434Z,15372.00
2019-06-15T06:49:12.407Z,22688.00
2019-06-15T06:50:12.403Z,48672.00
2019-06-15T06:51:12.396Z,31616.00
2019-06-15T06:52:12.404Z,39584.00
2019-06-15T06:53:12.375Z,33952.00
2019-06-15T06:54:12.367Z,47488.00
2019-06-15T06:55:12.360Z,56576.00
2019-06-15T06:56:12.357Z,15824.00
2019-06-15T06:57:12.346Z,20832.00
2019-06-15T06:58:12.339Z,27936.00
2019-06-15T06:59:12.331Z,35520.00
2019-06-15T07:00:12.323Z,36832.00
2019-06-15T07:01:12.318Z,45088.00
2019-06-15T07:02:12.311Z,36640.00
2019-06-15T07:03:12.301Z,25568.00
2019-06-15T07:04:12.292Z,25984.00
2019-06-15T07:05:12.286Z,24736.00
2019-06-15T07:06:12.285Z,22816.00
2019-06-15T07:07:12.268Z,21152.00
2019-06-15T07:08:12.268Z,23616.00
2019-06-15T07:09:12.250Z,21888.00
2019-06-15T07:10:12.242Z,23680.00
2019-06-15T07:11:12.235Z,24512.00
2019-06-15T07:12:12.223Z,24320.00
2019-06-15T07:13:12.213Z,19520.00
2019-06-15T07:14:12.203Z,11596.00
2019-06-15T07:15:12.193Z,9796.00
2019-06-15T07:16:12.183Z,9600.00
2019-06-15T07:17:12.171Z,7592.00
2019-06-15T07:18:12.160Z,7448.00
2019-06-15T07:19:12.149Z,7148.00
2019-06-15T07:20:12.137Z,10352.00
2019-06-15T07:21:12.129Z,14036.00
2019-06-15T07:22:12.121Z,13576.00
2019-06-15T07:23:12.104Z,15440.00
2019-06-15T07:24:12.090Z,17892.00
2019-06-15T07:25:12.122Z,20192.00
2019-06-15T07:26:12.119Z,26400.00
2019-06-15T07:27:12.065Z,31488.00
2019-06-15T07:28:12.040Z,29184.00
2019-06-15T07:29:12.029Z,27776.00
2019-06-15T07:30:12.016Z,32128.00
2019-06-15T07:31:12.005Z,42048.00
2019-06-15T07:32:11.995Z,15828.00
2019-06-15T07:33:11.981Z,15652.00
2019-06-15T07:34:11.975Z,17036.00
2019-06-15T07:35:11.962Z,24768.00
2019-06-15T07:36:11.948Z,32768.00
2019-06-15T07:37:11.935Z,66208.00
2019-06-15T07:38:11.932Z,83040.00
2019-06-15T07:39:11.919Z,85568.00
2019-06-15T07:40:11.906Z,67424.00
2019-06-15T07:41:11.894Z,44736.00
2019-06-15T07:42:11.886Z,35296.00
2019-06-15T07:43:11.883Z,22848.00
2019-06-15T07:44:11.870Z,71904.00
2019-06-15T07:45:11.861Z,36352.00
2019-06-15T07:46:11.856Z,71520.00
2019-06-15T07:47:11.849Z,30208.00
2019-06-15T07:48:11.838Z,52352.00
2019-06-15T07:49:11.828Z,45760.00
2019-06-15T07:50:11.821Z,91520.00
2019-06-15T07:51:11.815Z,47328.00
2019-06-15T07:52:11.825Z,28256.00
2019-06-15T07:53:11.803Z,26528.00
2019-06-15T07:54:11.794Z,24640.00
2019-06-15T07:55:11.788Z,22176.00
2019-06-15T07:56:11.781Z,83168.00
2019-06-15T07:57:11.782Z,29792.00
2019-06-15T07:58:24.169Z,86592.00
2019-06-15T07:59:11.766Z,68480.00
2019-06-15T08:00:11.768Z,78976.00
2019-06-15T08:01:11.746Z,79680.00
2019-06-15T08:02:11.741Z,78272.00
2019-06-15T08:03:11.740Z,78528.00
2019-06-15T08:04:11.730Z,80224.00
2019-06-15T08:05:11.723Z,82944.00
2019-06-15T08:06:11.718Z,47232.00
2019-06-15T08:07:11.715Z,88096.00
2019-06-15T08:08:11.716Z,62912.00
2019-06-15T08:09:11.705Z,77792.00
2019-06-15T08:10:11.702Z,70048.00
2019-06-15T08:11:11.695Z,68160.00
2019-06-15T08:12:11.693Z,43008.00
2019-06-15T08:13:11.688Z,91840.00
2019-06-15T08:14:11.681Z,96896.00
2019-06-15T08:15:11.701Z,42816.00
2019-06-15T08:16:11.674Z,31904.00
2019-06-15T08:17:11.669Z,41504.00
2019-06-15T08:18:11.663Z,37344.00
2019-06-15T08:19:11.660Z,95264.00
2019-06-15T08:20:11.654Z,36736.00
2019-06-15T08:21:11.648Z,100736.00
2019-06-15T08:22:11.646Z,89632.00
2019-06-15T08:23:11.641Z,75168.00
2019-06-15T08:24:11.641Z,99648.00
2019-06-15T08:25:11.633Z,52384.00
2019-06-15T08:26:11.625Z,42624.00
2019-06-15T08:27:11.623Z,86624.00
2019-06-15T08:28:11.646Z,62560.00
2019-06-15T08:29:11.608Z,26688.00
2019-06-15T08:30:11.623Z,68768.00
2019-06-15T08:31:11.595Z,90720.00
2019-06-15T08:32:11.605Z,91936.00
2019-06-15T08:33:11.583Z,89248.00
2019-06-15T08:34:11.579Z,38496.00
2019-06-15T08:35:11.575Z,29984.00
2019-06-15T08:36:11.569Z,88992.00
2019-06-15T08:37:11.563Z,88576.00
2019-06-15T08:38:11.573Z,45504.00
2019-06-15T08:39:11.552Z,91328.00
2019-06-15T08:40:11.548Z,88832.00
2019-06-15T08:41:11.543Z,84480.00
2019-06-15T08:42:11.537Z,84896.00
2019-06-15T08:43:11.533Z,85600.00
2019-06-15T08:44:11.531Z,87072.00
2019-06-15T08:45:11.579Z,88576.00
2019-06-15T08:46:11.523Z,88704.00
2019-06-15T08:47:11.517Z,97664.00
2019-06-15T08:48:11.708Z,19444.00
2019-06-15T08:49:11.513Z,99936.00
2019-06-15T08:50:11.519Z,74784.00
2019-06-15T08:51:11.498Z,15312.00
2019-06-15T08:52:11.549Z,84000.00
2019-06-15T08:53:11.488Z,85664.00
2019-06-15T08:54:11.484Z,88416.00
2019-06-15T08:55:11.479Z,90976.00
2019-06-15T08:56:11.475Z,95712.00
2019-06-15T08:57:11.469Z,20768.00
2019-06-15T08:58:11.464Z,103488.00
2019-06-15T08:59:11.461Z,18164.00
2019-06-15T09:00:11.457Z,48832.00
2019-06-15T09:01:11.449Z,107040.00
2019-06-15T09:02:11.445Z,85504.00
2019-06-15T09:03:11.664Z,21984.00
2019-06-15T09:04:11.433Z,100800.00
2019-06-15T09:05:11.428Z,25344.00
2019-06-15T09:06:11.423Z,88160.00
2019-06-15T09:07:11.420Z,89888.00
2019-06-15T09:08:11.413Z,87840.00
2019-06-15T09:09:11.408Z,86784.00
2019-06-15T09:10:11.403Z,88448.00
2019-06-15T09:11:11.404Z,21984.00
2019-06-15T09:12:11.395Z,62560.00
2019-06-15T09:13:11.388Z,89216.00
2019-06-15T09:14:11.384Z,94112.00
2019-06-15T09:15:11.386Z,92768.00
2019-06-15T09:16:11.379Z,91936.00
2019-06-15T09:17:11.379Z,90080.00
2019-06-15T09:18:11.369Z,89952.00
2019-06-15T09:19:11.396Z,91520.00
2019-06-15T09:20:11.360Z,91424.00
2019-06-15T09:21:11.356Z,91136.00
2019-06-15T09:22:11.349Z,88480.00
2019-06-15T09:23:11.346Z,61728.00
2019-06-15T09:24:11.342Z,89824.00
2019-06-15T09:25:11.341Z,89600.00
2019-06-15T09:26:11.338Z,90784.00
2019-06-15T09:27:11.334Z,90592.00
2019-06-15T09:28:11.325Z,90432.00
2019-06-15T09:29:11.899Z,90304.00
2019-06-15T09:30:11.319Z,90016.00
2019-06-15T09:31:11.315Z,89184.00
2019-06-15T09:32:11.313Z,92000.00
2019-06-15T09:33:11.307Z,91744.00
2019-06-15T09:34:18.890Z,89920.00
2019-06-15T09:35:11.302Z,93280.00
2019-06-15T09:36:11.296Z,77664.00
2019-06-15T09:37:11.293Z,97568.00
2019-06-15T09:38:11.303Z,99648.00
2019-06-15T09:39:14.400Z,102304.00
2019-06-15T09:40:11.284Z,105376.00
2019-06-15T09:41:11.279Z,30976.00
2019-06-15T09:42:11.279Z,26976.00
2019-06-15T09:43:11.270Z,30240.00
2019-06-15T09:44:11.265Z,112256.00
2019-06-15T09:45:11.261Z,100000.00
2019-06-15T09:46:11.258Z,36224.00
2019-06-15T09:47:11.258Z,38432.00
2019-06-15T09:48:11.248Z,39296.00
2019-06-15T09:49:11.244Z,39488.00
2019-06-15T09:50:11.241Z,38208.00
2019-06-15T09:51:11.237Z,33856.00
2019-06-15T09:52:11.229Z,33216.00
2019-06-15T09:53:11.231Z,34720.00
2019-06-15T09:54:11.262Z,34592.00
2019-06-15T09:55:11.214Z,27136.00
2019-06-15T09:56:11.205Z,22464.00
2019-06-15T09:57:11.222Z,23424.00
2019-06-15T09:58:11.194Z,25984.00
2019-06-15T09:59:25.083Z,25664.00
2019-06-15T10:00:11.183Z,24704.00
2019-06-15T10:01:11.175Z,25056.00
2019-06-15T10:02:11.170Z,27168.00
2019-06-15T10:03:11.162Z,30080.00
2019-06-15T10:04:11.155Z,31392.00
2019-06-15T10:05:36.825Z,32000.00
2019-06-15T10:06:11.837Z,32704.00
2019-06-15T10:07:11.134Z,31872.00
2019-06-15T10:08:11.166Z,30624.00
2019-06-15T10:09:11.123Z,30656.00
2019-06-15T10:10:11.112Z,32064.00
2019-06-15T10:11:11.106Z,33952.00
2019-06-15T10:12:11.105Z,35840.00
2019-06-15T10:13:11.090Z,38496.00
2019-06-15T10:14:11.085Z,43072.00
2019-06-15T10:15:11.079Z,50688.00
2019-06-15T10:16:11.072Z,43968.00
2019-06-15T10:17:11.060Z,38848.00
2019-06-15T10:18:11.055Z,34912.00
2019-06-15T10:19:11.049Z,31264.00
2019-06-15T10:20:11.049Z,28448.00
2019-06-15T10:21:11.032Z,26752.00
2019-06-15T10:22:11.031Z,26272.00
2019-06-15T10:23:11.019Z,26752.00
2019-06-15T10:24:11.056Z,27808.00
2019-06-15T10:25:11.011Z,29248.00
2019-06-15T10:26:10.993Z,31168.00
2019-06-15T10:27:10.990Z,34112.00
2019-06-15T10:28:10.978Z,38688.00
2019-06-15T10:29:10.979Z,39072.00
2019-06-15T10:30:10.972Z,35296.00
2019-06-15T10:31:10.957Z,31360.00
2019-06-15T10:32:10.945Z,28864.00
2019-06-15T10:33:10.940Z,27808.00
2019-06-15T10:34:10.929Z,27552.00
2019-06-15T10:35:10.939Z,27840.00
2019-06-15T10:36:10.924Z,30464.00
2019-06-15T10:37:10.906Z,33568.00
2019-06-15T10:38:10.898Z,37408.00
2019-06-15T10:39:10.891Z,40064.00
2019-06-15T10:40:10.890Z,43168.00
2019-06-15T10:41:10.876Z,45216.00
2019-06-15T10:42:10.868Z,47104.00
2019-06-15T10:43:10.859Z,49664.00
2019-06-15T10:44:10.849Z,77440.00
2019-06-15T10:45:10.842Z,58624.00
2019-06-15T10:46:10.838Z,70592.00
2019-06-15T10:47:10.832Z,62400.00
2019-06-15T10:48:10.880Z,63552.00
2019-06-15T10:49:10.816Z,37440.00
2019-06-15T10:50:10.811Z,31808.00
2019-06-15T10:51:10.802Z,28544.00
2019-06-15T10:52:10.827Z,24832.00
2019-06-15T10:53:11.257Z,21216.00
2019-06-15T10:54:10.796Z,19584.00
2019-06-15T10:55:10.773Z,19232.00
2019-06-15T10:56:10.765Z,17680.00
2019-06-15T10:57:10.802Z,16552.00
2019-06-15T10:58:10.798Z,16528.00
2019-06-15T10:59:10.768Z,19648.00
2019-06-15T11:00:10.733Z,26400.00
2019-06-15T11:01:10.753Z,44000.00
2019-06-15T11:02:10.726Z,82272.00
2019-06-15T11:03:10.709Z,43520.00
2019-06-15T11:04:10.705Z,31488.00
2019-06-15T11:05:10.698Z,25344.00
2019-06-15T11:06:10.701Z,22240.00
2019-06-15T11:07:10.734Z,22336.00
2019-06-15T11:08:10.693Z,26528.00
2019-06-15T11:09:10.662Z,33184.00
2019-06-15T11:10:10.668Z,38016.00
2019-06-15T11:11:10.674Z,58176.00
2019-06-15T11:12:10.662Z,45216.00
2019-06-15T11:13:10.653Z,45952.00
2019-06-15T11:14:10.624Z,32320.00
2019-06-15T11:15:10.658Z,29952.00
2019-06-15T11:16:10.618Z,28768.00
2019-06-15T11:17:10.610Z,32960.00
2019-06-15T11:18:10.629Z,41856.00
2019-06-15T11:19:10.609Z,70368.00
2019-06-15T11:20:10.576Z,47712.00
2019-06-15T11:21:10.617Z,41504.00
2019-06-15T11:22:10.561Z,29376.00
2019-06-15T11:23:10.560Z,21920.00
2019-06-15T11:24:10.621Z,16808.00
2019-06-15T11:25:10.548Z,14320.00
2019-06-15T11:26:10.559Z,14896.00
2019-06-15T11:27:10.539Z,74208.00
2019-06-15T11:28:10.534Z,57024.00
2019-06-15T11:29:10.513Z,84672.00
2019-06-15T11:30:14.271Z,36192.00
2019-06-15T11:31:10.501Z,113952.00
2019-06-15T11:32:10.496Z,113504.00
2019-06-15T11:33:10.510Z,114016.00
2019-06-15T11:34:10.475Z,40800.00
2019-06-15T11:35:10.486Z,39744.00
2019-06-15T11:36:10.468Z,108416.00
2019-06-15T11:37:11.758Z,29856.00
2019-06-15T11:38:10.460Z,28992.00
2019-06-15T11:39:10.448Z,25792.00
2019-06-15T11:40:10.444Z,21984.00
2019-06-15T11:41:10.440Z,19360.00
2019-06-15T11:42:10.445Z,19168.00
2019-06-15T11:43:10.437Z,18976.00
2019-06-15T11:44:10.422Z,20512.00
2019-06-15T11:45:10.425Z,24064.00
2019-06-15T11:46:10.401Z,27456.00
2019-06-15T11:47:10.398Z,114528.00
2019-06-15T11:48:10.388Z,110080.00
2019-06-15T11:49:10.383Z,54368.00
2019-06-15T11:50:12.092Z,113760.00
2019-06-15T11:51:10.367Z,110080.00
2019-06-15T11:52:10.366Z,105280.00
2019-06-15T11:53:10.355Z,104480.00
2019-06-15T11:54:10.394Z,106304.00
2019-06-15T11:55:10.345Z,38016.00
2019-06-15T11:56:10.341Z,108896.00
2019-06-15T11:57:10.336Z,67072.00
2019-06-15T11:58:10.330Z,31392.00
2019-06-15T11:59:10.328Z,32832.00
2019-06-15T12:00:10.449Z,119520.00
2019-06-15T12:01:10.316Z,36832.00
2019-06-15T12:02:10.309Z,47552.00
2019-06-15T12:03:10.305Z,34336.00
2019-06-15T12:04:10.296Z,31712.00
2019-06-15T12:05:10.316Z,42624.00
2019-06-15T12:06:10.287Z,112352.00
2019-06-15T12:07:10.284Z,105664.00
2019-06-15T12:08:10.274Z,104448.00
2019-06-15T12:09:10.270Z,106400.00
2019-06-15T12:10:10.272Z,108672.00
2019-06-15T12:11:10.264Z,111168.00
2019-06-15T12:12:10.258Z,101152.00
2019-06-15T12:13:10.253Z,26400.00
2019-06-15T12:14:10.246Z,25984.00